sensor_id;sensor_type;location;lat;lon;timestamp;P1;durP1;ratioP1;P2;durP2;ratioP2
20653;SDS011;21083;50.898;4.902;2023-04-15T00:01:44;10.57;;;2.90;;
20653;SDS011;21083;50.898;4.902;2023-04-15T00:04:10;10.80;;;2.92;;
20653;SDS011;21083;50.898;4.902;2023-04-15T00:06:37;13.13;;;3.40;;
20653;SDS011;21083;50.898;4.902;2023-04-15T00:09:06;10.98;;;2.85;;
20653;SDS011;21083;50.898;4.902;2023-04-15T00:11:33;11.57;;;3.58;;
20653;SDS011;21083;50.898;4.902;2023-04-15T00:14:00;10.90;;;3.38;;
20653;SDS011;21083;50.898;4.902;2023-04-15T00:16:27;10.80;;;3.22;;
20653;SDS011;21083;50.898;4.902;2023-04-15T00:18:54;13.55;;;3.58;;
20653;SDS011;21083;50.898;4.902;2023-04-15T00:21:21;8.82;;;2.92;;
20653;SDS011;21083;50.898;4.902;2023-04-15T00:23:47;10.63;;;2.70;;
20653;SDS011;21083;50.898;4.902;2023-04-15T00:26:19;9.35;;;3.17;;
20653;SDS011;21083;50.898;4.902;2023-04-15T00:28:46;13.57;;;2.88;;
20653;SDS011;21083;50.898;4.902;2023-04-15T00:31:13;11.43;;;3.55;;
20653;SDS011;21083;50.898;4.902;2023-04-15T00:33:40;10.45;;;3.30;;
20653;SDS011;21083;50.898;4.902;2023-04-15T00:36:07;8.10;;;2.83;;
20653;SDS011;21083;50.898;4.902;2023-04-15T00:38:34;12.10;;;3.63;;
20653;SDS011;21083;50.898;4.902;2023-04-15T00:41:01;12.88;;;3.40;;
20653;SDS011;21083;50.898;4.902;2023-04-15T00:43:30;10.18;;;3.00;;
20653;SDS011;21083;50.898;4.902;2023-04-15T00:45:57;8.95;;;2.38;;
20653;SDS011;21083;50.898;4.902;2023-04-15T00:48:27;9.40;;;2.88;;
20653;SDS011;21083;50.898;4.902;2023-04-15T00:50:54;8.80;;;3.25;;
20653;SDS011;21083;50.898;4.902;2023-04-15T00:53:21;9.45;;;3.30;;
20653;SDS011;21083;50.898;4.902;2023-04-15T00:55:48;12.15;;;3.60;;
20653;SDS011;21083;50.898;4.902;2023-04-15T00:58:15;13.27;;;3.97;;
20653;SDS011;21083;50.898;4.902;2023-04-15T01:00:43;12.05;;;3.45;;
20653;SDS011;21083;50.898;4.902;2023-04-15T01:03:10;8.65;;;3.30;;
20653;SDS011;21083;50.898;4.902;2023-04-15T01:05:38;12.88;;;3.83;;
20653;SDS011;21083;50.898;4.902;2023-04-15T01:08:05;10.35;;;3.25;;
20653;SDS011;21083;50.898;4.902;2023-04-15T01:10:32;7.82;;;3.30;;
20653;SDS011;21083;50.898;4.902;2023-04-15T01:12:59;11.57;;;3.20;;
20653;SDS011;21083;50.898;4.902;2023-04-15T01:15:26;13.70;;;3.75;;
20653;SDS011;21083;50.898;4.902;2023-04-15T01:17:54;10.65;;;3.33;;
20653;SDS011;21083;50.898;4.902;2023-04-15T01:20:23;11.65;;;3.30;;
20653;SDS011;21083;50.898;4.902;2023-04-15T01:22:50;9.95;;;3.45;;
20653;SDS011;21083;50.898;4.902;2023-04-15T01:25:17;9.23;;;3.67;;
20653;SDS011;21083;50.898;4.902;2023-04-15T01:27:47;11.00;;;3.67;;
20653;SDS011;21083;50.898;4.902;2023-04-15T01:30:14;9.55;;;3.35;;
20653;SDS011;21083;50.898;4.902;2023-04-15T01:32:41;7.70;;;2.90;;
20653;SDS011;21083;50.898;4.902;2023-04-15T01:35:08;10.88;;;3.47;;
20653;SDS011;21083;50.898;4.902;2023-04-15T01:37:35;11.02;;;3.53;;
20653;SDS011;21083;50.898;4.902;2023-04-15T01:40:02;11.10;;;3.53;;
20653;SDS011;21083;50.898;4.902;2023-04-15T01:42:30;10.77;;;3.70;;
20653;SDS011;21083;50.898;4.902;2023-04-15T01:44:59;8.95;;;3.45;;
20653;SDS011;21083;50.898;4.902;2023-04-15T01:47:26;14.48;;;4.00;;
20653;SDS011;21083;50.898;4.902;2023-04-15T01:49:53;14.18;;;4.07;;
20653;SDS011;21083;50.898;4.902;2023-04-15T01:52:20;10.57;;;3.80;;
20653;SDS011;21083;50.898;4.902;2023-04-15T01:54:47;10.68;;;3.78;;
20653;SDS011;21083;50.898;4.902;2023-04-15T01:57:14;9.48;;;3.88;;
20653;SDS011;21083;50.898;4.902;2023-04-15T01:59:41;12.10;;;3.85;;
20653;SDS011;21083;50.898;4.902;2023-04-15T02:02:10;11.98;;;3.97;;
20653;SDS011;21083;50.898;4.902;2023-04-15T02:04:37;11.18;;;3.40;;
20653;SDS011;21083;50.898;4.902;2023-04-15T02:07:04;11.30;;;4.03;;
20653;SDS011;21083;50.898;4.902;2023-04-15T02:09:31;10.20;;;3.55;;
20653;SDS011;21083;50.898;4.902;2023-04-15T02:11:59;9.68;;;3.65;;
20653;SDS011;21083;50.898;4.902;2023-04-15T02:14:26;9.82;;;3.33;;
20653;SDS011;21083;50.898;4.902;2023-04-15T02:16:53;15.93;;;4.32;;
20653;SDS011;21083;50.898;4.902;2023-04-15T02:19:21;8.93;;;3.42;;
20653;SDS011;21083;50.898;4.902;2023-04-15T02:21:48;13.30;;;3.67;;
20653;SDS011;21083;50.898;4.902;2023-04-15T02:24:15;11.18;;;3.50;;
20653;SDS011;21083;50.898;4.902;2023-04-15T02:26:42;11.63;;;3.55;;
20653;SDS011;21083;50.898;4.902;2023-04-15T02:29:08;11.13;;;3.50;;
20653;SDS011;21083;50.898;4.902;2023-04-15T02:31:35;12.25;;;3.78;;
20653;SDS011;21083;50.898;4.902;2023-04-15T02:34:04;13.43;;;3.65;;
20653;SDS011;21083;50.898;4.902;2023-04-15T02:36:32;7.72;;;3.45;;
20653;SDS011;21083;50.898;4.902;2023-04-15T02:38:59;10.60;;;3.35;;
20653;SDS011;21083;50.898;4.902;2023-04-15T02:41:27;10.95;;;3.38;;
20653;SDS011;21083;50.898;4.902;2023-04-15T02:43:54;11.57;;;3.85;;
20653;SDS011;21083;50.898;4.902;2023-04-15T02:46:22;12.23;;;4.18;;
20653;SDS011;21083;50.898;4.902;2023-04-15T02:48:49;9.70;;;3.72;;
20653;SDS011;21083;50.898;4.902;2023-04-15T02:51:18;9.68;;;3.45;;
20653;SDS011;21083;50.898;4.902;2023-04-15T02:53:47;12.38;;;3.20;;
20653;SDS011;21083;50.898;4.902;2023-04-15T02:56:15;13.20;;;3.20;;
20653;SDS011;21083;50.898;4.902;2023-04-15T02:58:44;10.38;;;3.33;;
20653;SDS011;21083;50.898;4.902;2023-04-15T03:01:12;11.20;;;3.42;;
20653;SDS011;21083;50.898;4.902;2023-04-15T03:03:39;13.18;;;3.80;;
20653;SDS011;21083;50.898;4.902;2023-04-15T03:06:06;10.30;;;4.13;;
20653;SDS011;21083;50.898;4.902;2023-04-15T03:08:34;12.80;;;3.53;;
20653;SDS011;21083;50.898;4.902;2023-04-15T03:11:03;12.70;;;3.50;;
20653;SDS011;21083;50.898;4.902;2023-04-15T03:13:30;11.88;;;3.72;;
20653;SDS011;21083;50.898;4.902;2023-04-15T03:15:57;10.13;;;3.40;;
20653;SDS011;21083;50.898;4.902;2023-04-15T03:18:24;9.80;;;3.40;;
20653;SDS011;21083;50.898;4.902;2023-04-15T03:20:51;9.43;;;3.80;;
20653;SDS011;21083;50.898;4.902;2023-04-15T03:23:17;10.90;;;3.28;;
20653;SDS011;21083;50.898;4.902;2023-04-15T03:25:44;8.45;;;3.33;;
20653;SDS011;21083;50.898;4.902;2023-04-15T03:28:13;11.55;;;3.47;;
20653;SDS011;21083;50.898;4.902;2023-04-15T03:30:40;11.52;;;3.90;;
20653;SDS011;21083;50.898;4.902;2023-04-15T03:33:07;12.25;;;3.65;;
20653;SDS011;21083;50.898;4.902;2023-04-15T03:35:33;10.65;;;4.00;;
20653;SDS011;21083;50.898;4.902;2023-04-15T03:38:00;8.38;;;3.47;;
20653;SDS011;21083;50.898;4.902;2023-04-15T03:40:27;10.32;;;3.50;;
20653;SDS011;21083;50.898;4.902;2023-04-15T03:42:54;13.57;;;4.00;;
20653;SDS011;21083;50.898;4.902;2023-04-15T03:45:22;9.30;;;3.85;;
20653;SDS011;21083;50.898;4.902;2023-04-15T03:47:49;15.30;;;3.95;;
20653;SDS011;21083;50.898;4.902;2023-04-15T03:50:16;8.00;;;3.17;;
20653;SDS011;21083;50.898;4.902;2023-04-15T03:52:43;9.43;;;3.78;;
20653;SDS011;21083;50.898;4.902;2023-04-15T03:55:10;9.32;;;3.88;;
20653;SDS011;21083;50.898;4.902;2023-04-15T03:57:37;12.13;;;5.38;;
20653;SDS011;21083;50.898;4.902;2023-04-15T04:00:05;11.85;;;4.07;;
20653;SDS011;21083;50.898;4.902;2023-04-15T04:02:34;10.90;;;4.18;;
20653;SDS011;21083;50.898;4.902;2023-04-15T04:05:01;10.63;;;4.53;;
20653;SDS011;21083;50.898;4.902;2023-04-15T04:07:28;12.18;;;4.35;;
20653;SDS011;21083;50.898;4.902;2023-04-15T04:09:56;8.95;;;3.92;;
20653;SDS011;21083;50.898;4.902;2023-04-15T04:12:23;13.23;;;4.15;;
20653;SDS011;21083;50.898;4.902;2023-04-15T04:14:50;12.38;;;4.05;;
20653;SDS011;21083;50.898;4.902;2023-04-15T04:17:17;9.77;;;4.15;;
20653;SDS011;21083;50.898;4.902;2023-04-15T04:19:45;13.90;;;3.83;;
20653;SDS011;21083;50.898;4.902;2023-04-15T04:22:12;14.18;;;3.70;;
20653;SDS011;21083;50.898;4.902;2023-04-15T04:24:39;11.35;;;3.75;;
20653;SDS011;21083;50.898;4.902;2023-04-15T04:27:05;11.68;;;3.67;;
20653;SDS011;21083;50.898;4.902;2023-04-15T04:29:32;12.77;;;3.63;;
20653;SDS011;21083;50.898;4.902;2023-04-15T04:31:59;12.32;;;3.90;;
20653;SDS011;21083;50.898;4.902;2023-04-15T04:34:26;12.90;;;3.67;;
20653;SDS011;21083;50.898;4.902;2023-04-15T04:36:55;10.95;;;3.95;;
20653;SDS011;21083;50.898;4.902;2023-04-15T04:39:22;10.55;;;3.17;;
20653;SDS011;21083;50.898;4.902;2023-04-15T04:41:49;14.02;;;3.92;;
20653;SDS011;21083;50.898;4.902;2023-04-15T04:44:16;13.05;;;3.92;;
20653;SDS011;21083;50.898;4.902;2023-04-15T04:46:43;11.27;;;3.65;;
20653;SDS011;21083;50.898;4.902;2023-04-15T04:49:10;12.68;;;3.45;;
20653;SDS011;21083;50.898;4.902;2023-04-15T04:51:37;13.30;;;3.75;;
20653;SDS011;21083;50.898;4.902;2023-04-15T04:54:05;11.20;;;3.72;;
20653;SDS011;21083;50.898;4.902;2023-04-15T04:56:32;9.65;;;3.53;;
20653;SDS011;21083;50.898;4.902;2023-04-15T04:58:59;12.90;;;3.60;;
20653;SDS011;21083;50.898;4.902;2023-04-15T05:01:26;11.48;;;3.83;;
20653;SDS011;21083;50.898;4.902;2023-04-15T05:03:53;11.18;;;3.65;;
20653;SDS011;21083;50.898;4.902;2023-04-15T05:06:21;10.65;;;4.03;;
20653;SDS011;21083;50.898;4.902;2023-04-15T05:08:48;11.77;;;4.30;;
20653;SDS011;21083;50.898;4.902;2023-04-15T05:11:16;10.63;;;3.70;;
20653;SDS011;21083;50.898;4.902;2023-04-15T05:13:43;10.63;;;3.55;;
20653;SDS011;21083;50.898;4.902;2023-04-15T05:16:10;12.48;;;4.35;;
20653;SDS011;21083;50.898;4.902;2023-04-15T05:18:37;9.27;;;3.28;;
20653;SDS011;21083;50.898;4.902;2023-04-15T05:21:04;15.10;;;3.92;;
20653;SDS011;21083;50.898;4.902;2023-04-15T05:23:31;13.60;;;3.95;;
20653;SDS011;21083;50.898;4.902;2023-04-15T05:25:59;11.02;;;4.10;;
20653;SDS011;21083;50.898;4.902;2023-04-15T05:28:27;9.75;;;3.55;;
20653;SDS011;21083;50.898;4.902;2023-04-15T05:30:54;12.00;;;4.72;;
20653;SDS011;21083;50.898;4.902;2023-04-15T05:33:21;13.10;;;4.72;;
20653;SDS011;21083;50.898;4.902;2023-04-15T05:35:48;14.30;;;4.85;;
20653;SDS011;21083;50.898;4.902;2023-04-15T05:38:15;15.48;;;4.80;;
20653;SDS011;21083;50.898;4.902;2023-04-15T05:40:42;14.18;;;5.28;;
20653;SDS011;21083;50.898;4.902;2023-04-15T05:43:08;24.05;;;8.80;;
20653;SDS011;21083;50.898;4.902;2023-04-15T05:45:37;20.42;;;8.10;;
20653;SDS011;21083;50.898;4.902;2023-04-15T05:48:04;19.92;;;8.90;;
20653;SDS011;21083;50.898;4.902;2023-04-15T05:50:31;20.88;;;7.35;;
20653;SDS011;21083;50.898;4.902;2023-04-15T05:52:58;18.05;;;7.15;;
20653;SDS011;21083;50.898;4.902;2023-04-15T05:55:25;13.68;;;5.25;;
20653;SDS011;21083;50.898;4.902;2023-04-15T05:57:52;14.00;;;4.75;;
20653;SDS011;21083;50.898;4.902;2023-04-15T06:00:19;17.88;;;4.97;;
20653;SDS011;21083;50.898;4.902;2023-04-15T06:02:47;14.25;;;4.68;;
20653;SDS011;21083;50.898;4.902;2023-04-15T06:05:15;16.00;;;4.53;;
20653;SDS011;21083;50.898;4.902;2023-04-15T06:07:42;13.57;;;4.78;;
20653;SDS011;21083;50.898;4.902;2023-04-15T06:10:09;11.35;;;4.80;;
20653;SDS011;21083;50.898;4.902;2023-04-15T06:12:36;12.80;;;4.78;;
20653;SDS011;21083;50.898;4.902;2023-04-15T06:15:03;14.77;;;5.20;;
20653;SDS011;21083;50.898;4.902;2023-04-15T06:17:34;15.23;;;5.20;;
20653;SDS011;21083;50.898;4.902;2023-04-15T06:20:02;13.85;;;6.03;;
20653;SDS011;21083;50.898;4.902;2023-04-15T06:22:29;12.73;;;5.68;;
20653;SDS011;21083;50.898;4.902;2023-04-15T06:24:56;16.92;;;5.78;;
20653;SDS011;21083;50.898;4.902;2023-04-15T06:27:23;13.98;;;5.45;;
20653;SDS011;21083;50.898;4.902;2023-04-15T06:29:50;20.02;;;7.88;;
20653;SDS011;21083;50.898;4.902;2023-04-15T06:32:17;19.98;;;6.53;;
20653;SDS011;21083;50.898;4.902;2023-04-15T06:34:44;19.23;;;5.97;;
20653;SDS011;21083;50.898;4.902;2023-04-15T06:37:12;19.58;;;6.13;;
20653;SDS011;21083;50.898;4.902;2023-04-15T06:39:40;15.85;;;6.60;;
20653;SDS011;21083;50.898;4.902;2023-04-15T06:42:07;19.58;;;6.57;;
20653;SDS011;21083;50.898;4.902;2023-04-15T06:44:35;14.80;;;5.93;;
20653;SDS011;21083;50.898;4.902;2023-04-15T06:47:02;17.67;;;5.93;;
20653;SDS011;21083;50.898;4.902;2023-04-15T06:49:29;20.20;;;6.45;;
20653;SDS011;21083;50.898;4.902;2023-04-15T06:51:56;16.73;;;6.15;;
20653;SDS011;21083;50.898;4.902;2023-04-15T06:54:24;15.60;;;6.78;;
20653;SDS011;21083;50.898;4.902;2023-04-15T06:56:51;15.88;;;6.10;;
20653;SDS011;21083;50.898;4.902;2023-04-15T06:59:18;16.85;;;5.80;;
20653;SDS011;21083;50.898;4.902;2023-04-15T07:01:45;20.80;;;6.25;;
20653;SDS011;21083;50.898;4.902;2023-04-15T07:04:12;20.58;;;6.45;;
20653;SDS011;21083;50.898;4.902;2023-04-15T07:06:39;15.57;;;5.57;;
20653;SDS011;21083;50.898;4.902;2023-04-15T07:09:06;15.70;;;5.68;;
20653;SDS011;21083;50.898;4.902;2023-04-15T07:11:34;15.20;;;5.80;;
20653;SDS011;21083;50.898;4.902;2023-04-15T07:14:01;18.55;;;6.40;;
20653;SDS011;21083;50.898;4.902;2023-04-15T07:16:28;15.30;;;6.28;;
20653;SDS011;21083;50.898;4.902;2023-04-15T07:18:55;16.02;;;6.45;;
20653;SDS011;21083;50.898;4.902;2023-04-15T07:21:22;16.63;;;6.65;;
20653;SDS011;21083;50.898;4.902;2023-04-15T07:23:49;15.40;;;6.88;;
20653;SDS011;21083;50.898;4.902;2023-04-15T07:26:16;16.80;;;6.95;;
20653;SDS011;21083;50.898;4.902;2023-04-15T07:28:44;20.80;;;7.55;;
20653;SDS011;21083;50.898;4.902;2023-04-15T07:31:12;16.05;;;6.65;;
20653;SDS011;21083;50.898;4.902;2023-04-15T07:33:38;19.40;;;7.32;;
20653;SDS011;21083;50.898;4.902;2023-04-15T07:36:05;15.77;;;7.20;;
20653;SDS011;21083;50.898;4.902;2023-04-15T07:38:33;18.02;;;6.68;;
20653;SDS011;21083;50.898;4.902;2023-04-15T07:41:00;16.90;;;7.80;;
20653;SDS011;21083;50.898;4.902;2023-04-15T07:43:27;19.38;;;8.00;;
20653;SDS011;21083;50.898;4.902;2023-04-15T07:45:55;15.45;;;7.20;;
20653;SDS011;21083;50.898;4.902;2023-04-15T07:48:22;20.92;;;8.48;;
20653;SDS011;21083;50.898;4.902;2023-04-15T07:50:49;15.55;;;7.97;;
20653;SDS011;21083;50.898;4.902;2023-04-15T07:53:16;15.32;;;6.60;;
20653;SDS011;21083;50.898;4.902;2023-04-15T07:55:43;19.17;;;7.45;;
20653;SDS011;21083;50.898;4.902;2023-04-15T07:58:10;16.95;;;6.93;;
20653;SDS011;21083;50.898;4.902;2023-04-15T08:00:37;17.58;;;7.00;;
20653;SDS011;21083;50.898;4.902;2023-04-15T08:03:05;16.73;;;7.22;;
20653;SDS011;21083;50.898;4.902;2023-04-15T08:05:32;18.75;;;6.72;;
20653;SDS011;21083;50.898;4.902;2023-04-15T08:07:59;21.42;;;8.02;;
20653;SDS011;21083;50.898;4.902;2023-04-15T08:10:27;13.52;;;7.22;;
20653;SDS011;21083;50.898;4.902;2023-04-15T08:12:54;17.30;;;7.45;;
20653;SDS011;21083;50.898;4.902;2023-04-15T08:15:21;21.35;;;7.70;;
20653;SDS011;21083;50.898;4.902;2023-04-15T08:17:48;16.02;;;7.00;;
20653;SDS011;21083;50.898;4.902;2023-04-15T08:20:16;19.88;;;7.80;;
20653;SDS011;21083;50.898;4.902;2023-04-15T08:22:43;21.02;;;6.28;;
20653;SDS011;21083;50.898;4.902;2023-04-15T08:25:11;16.95;;;7.78;;
20653;SDS011;21083;50.898;4.902;2023-04-15T08:27:38;15.23;;;7.32;;
20653;SDS011;21083;50.898;4.902;2023-04-15T08:30:06;18.15;;;8.10;;
20653;SDS011;21083;50.898;4.902;2023-04-15T08:32:34;18.08;;;7.82;;
20653;SDS011;21083;50.898;4.902;2023-04-15T08:35:01;18.15;;;6.93;;
20653;SDS011;21083;50.898;4.902;2023-04-15T08:37:29;20.42;;;7.80;;
20653;SDS011;21083;50.898;4.902;2023-04-15T08:39:57;20.98;;;7.75;;
20653;SDS011;21083;50.898;4.902;2023-04-15T08:42:26;18.00;;;7.82;;
20653;SDS011;21083;50.898;4.902;2023-04-15T08:44:56;15.95;;;7.15;;
20653;SDS011;21083;50.898;4.902;2023-04-15T08:47:27;15.63;;;7.45;;
20653;SDS011;21083;50.898;4.902;2023-04-15T08:49:57;16.60;;;7.82;;
20653;SDS011;21083;50.898;4.902;2023-04-15T08:52:24;15.77;;;7.00;;
20653;SDS011;21083;50.898;4.902;2023-04-15T08:54:53;21.20;;;8.32;;
20653;SDS011;21083;50.898;4.902;2023-04-15T08:57:24;17.42;;;8.20;;
20653;SDS011;21083;50.898;4.902;2023-04-15T08:59:52;13.93;;;6.88;;
20653;SDS011;21083;50.898;4.902;2023-04-15T09:02:21;16.70;;;6.80;;
20653;SDS011;21083;50.898;4.902;2023-04-15T09:04:49;14.70;;;7.07;;
20653;SDS011;21083;50.898;4.902;2023-04-15T09:07:16;14.77;;;7.00;;
20653;SDS011;21083;50.898;4.902;2023-04-15T09:09:43;15.40;;;6.78;;
20653;SDS011;21083;50.898;4.902;2023-04-15T09:12:11;15.13;;;6.65;;
20653;SDS011;21083;50.898;4.902;2023-04-15T09:14:38;16.10;;;6.25;;
20653;SDS011;21083;50.898;4.902;2023-04-15T09:17:08;13.50;;;5.78;;
20653;SDS011;21083;50.898;4.902;2023-04-15T09:19:36;15.80;;;6.40;;
20653;SDS011;21083;50.898;4.902;2023-04-15T09:22:03;13.02;;;6.00;;
20653;SDS011;21083;50.898;4.902;2023-04-15T09:24:34;16.80;;;7.03;;
20653;SDS011;21083;50.898;4.902;2023-04-15T09:27:07;11.90;;;6.13;;
20653;SDS011;21083;50.898;4.902;2023-04-15T09:29:36;13.25;;;5.82;;
20653;SDS011;21083;50.898;4.902;2023-04-15T09:32:09;15.52;;;5.90;;
20653;SDS011;21083;50.898;4.902;2023-04-15T09:34:37;16.38;;;6.00;;
20653;SDS011;21083;50.898;4.902;2023-04-15T09:37:04;12.20;;;5.55;;
20653;SDS011;21083;50.898;4.902;2023-04-15T09:39:44;11.95;;;5.90;;
20653;SDS011;21083;50.898;4.902;2023-04-15T09:42:12;16.42;;;5.45;;
20653;SDS011;21083;50.898;4.902;2023-04-15T09:44:41;10.48;;;5.57;;
20653;SDS011;21083;50.898;4.902;2023-04-15T09:47:08;11.80;;;4.35;;
20653;SDS011;21083;50.898;4.902;2023-04-15T09:49:34;11.10;;;4.47;;
20653;SDS011;21083;50.898;4.902;2023-04-15T09:52:01;10.95;;;4.63;;
20653;SDS011;21083;50.898;4.902;2023-04-15T09:54:33;11.73;;;4.40;;
20653;SDS011;21083;50.898;4.902;2023-04-15T09:57:04;12.35;;;4.07;;
20653;SDS011;21083;50.898;4.902;2023-04-15T09:59:32;11.15;;;4.57;;
20653;SDS011;21083;50.898;4.902;2023-04-15T10:02:00;9.20;;;4.30;;
20653;SDS011;21083;50.898;4.902;2023-04-15T10:04:32;10.75;;;4.00;;
20653;SDS011;21083;50.898;4.902;2023-04-15T10:07:04;10.20;;;4.45;;
20653;SDS011;21083;50.898;4.902;2023-04-15T10:09:34;10.10;;;3.85;;
20653;SDS011;21083;50.898;4.902;2023-04-15T10:12:01;9.07;;;4.43;;
20653;SDS011;21083;50.898;4.902;2023-04-15T10:14:30;15.07;;;4.95;;
20653;SDS011;21083;50.898;4.902;2023-04-15T10:17:01;10.38;;;3.72;;
20653;SDS011;21083;50.898;4.902;2023-04-15T10:19:30;10.23;;;4.65;;
20653;SDS011;21083;50.898;4.902;2023-04-15T10:21:58;9.85;;;4.45;;
20653;SDS011;21083;50.898;4.902;2023-04-15T10:24:26;9.68;;;3.80;;
20653;SDS011;21083;50.898;4.902;2023-04-15T10:26:53;10.88;;;4.10;;
20653;SDS011;21083;50.898;4.902;2023-04-15T10:29:22;11.20;;;3.85;;
20653;SDS011;21083;50.898;4.902;2023-04-15T10:31:50;9.30;;;3.72;;
20653;SDS011;21083;50.898;4.902;2023-04-15T10:34:20;9.75;;;4.20;;
20653;SDS011;21083;50.898;4.902;2023-04-15T10:36:48;9.43;;;4.47;;
20653;SDS011;21083;50.898;4.902;2023-04-15T10:42:05;8.50;;;3.35;;
20653;SDS011;21083;50.898;4.902;2023-04-15T10:44:34;6.93;;;3.03;;
20653;SDS011;21083;50.898;4.902;2023-04-15T10:47:03;9.02;;;3.33;;
20653;SDS011;21083;50.898;4.902;2023-04-15T10:49:42;9.93;;;3.72;;
20653;SDS011;21083;50.898;4.902;2023-04-15T10:52:10;10.77;;;4.00;;
20653;SDS011;21083;50.898;4.902;2023-04-15T10:54:38;11.77;;;3.45;;
20653;SDS011;21083;50.898;4.902;2023-04-15T10:57:08;9.70;;;3.92;;
20653;SDS011;21083;50.898;4.902;2023-04-15T11:02:36;6.90;;;2.65;;
20653;SDS011;21083;50.898;4.902;2023-04-15T11:05:06;11.77;;;2.95;;
20653;SDS011;21083;50.898;4.902;2023-04-15T11:07:38;7.18;;;2.90;;
20653;SDS011;21083;50.898;4.902;2023-04-15T11:13:19;6.13;;;2.83;;
20653;SDS011;21083;50.898;4.902;2023-04-15T11:15:48;8.55;;;3.08;;
20653;SDS011;21083;50.898;4.902;2023-04-15T11:18:16;5.63;;;2.70;;
20653;SDS011;21083;50.898;4.902;2023-04-15T11:20:47;8.77;;;2.88;;
20653;SDS011;21083;50.898;4.902;2023-04-15T11:23:16;6.57;;;2.30;;
20653;SDS011;21083;50.898;4.902;2023-04-15T11:25:44;10.43;;;2.83;;
20653;SDS011;21083;50.898;4.902;2023-04-15T11:28:11;7.03;;;2.30;;
20653;SDS011;21083;50.898;4.902;2023-04-15T11:30:39;8.20;;;2.80;;
20653;SDS011;21083;50.898;4.902;2023-04-15T11:33:08;10.05;;;2.95;;
20653;SDS011;21083;50.898;4.902;2023-04-15T11:35:36;6.57;;;2.65;;
20653;SDS011;21083;50.898;4.902;2023-04-15T11:38:07;5.82;;;2.47;;
20653;SDS011;21083;50.898;4.902;2023-04-15T11:40:35;8.02;;;2.53;;
20653;SDS011;21083;50.898;4.902;2023-04-15T11:43:04;3.90;;;1.85;;
20653;SDS011;21083;50.898;4.902;2023-04-15T11:45:32;5.35;;;1.75;;
20653;SDS011;21083;50.898;4.902;2023-04-15T11:48:04;6.63;;;1.92;;
20653;SDS011;21083;50.898;4.902;2023-04-15T11:50:31;4.82;;;1.80;;
20653;SDS011;21083;50.898;4.902;2023-04-15T11:52:59;8.60;;;1.73;;
20653;SDS011;21083;50.898;4.902;2023-04-15T11:55:28;5.68;;;1.48;;
20653;SDS011;21083;50.898;4.902;2023-04-15T11:58:07;6.88;;;2.08;;
20653;SDS011;21083;50.898;4.902;2023-04-15T12:00:35;7.40;;;2.50;;
20653;SDS011;21083;50.898;4.902;2023-04-15T12:03:13;4.45;;;1.80;;
20653;SDS011;21083;50.898;4.902;2023-04-15T12:11:31;4.78;;;1.73;;
20653;SDS011;21083;50.898;4.902;2023-04-15T12:14:02;6.38;;;1.83;;
20653;SDS011;21083;50.898;4.902;2023-04-15T12:16:32;6.35;;;1.92;;
20653;SDS011;21083;50.898;4.902;2023-04-15T12:18:59;5.95;;;2.15;;
20653;SDS011;21083;50.898;4.902;2023-04-15T12:21:32;3.90;;;1.23;;
20653;SDS011;21083;50.898;4.902;2023-04-15T12:24:00;3.97;;;1.20;;
20653;SDS011;21083;50.898;4.902;2023-04-15T12:26:30;4.45;;;1.27;;
20653;SDS011;21083;50.898;4.902;2023-04-15T12:28:59;2.00;;;1.10;;
20653;SDS011;21083;50.898;4.902;2023-04-15T12:31:27;6.93;;;1.80;;
20653;SDS011;21083;50.898;4.902;2023-04-15T12:33:54;4.63;;;1.20;;
20653;SDS011;21083;50.898;4.902;2023-04-15T12:36:22;6.35;;;1.63;;
20653;SDS011;21083;50.898;4.902;2023-04-15T12:38:49;4.45;;;1.00;;
20653;SDS011;21083;50.898;4.902;2023-04-15T12:41:16;4.22;;;1.00;;
20653;SDS011;21083;50.898;4.902;2023-04-15T12:43:44;3.00;;;1.00;;
20653;SDS011;21083;50.898;4.902;2023-04-15T12:46:12;4.45;;;1.40;;
20653;SDS011;21083;50.898;4.902;2023-04-15T12:48:39;4.60;;;1.40;;
20653;SDS011;21083;50.898;4.902;2023-04-15T12:51:06;4.43;;;1.30;;
20653;SDS011;21083;50.898;4.902;2023-04-15T12:53:33;5.35;;;1.58;;
20653;SDS011;21083;50.898;4.902;2023-04-15T12:56:00;3.78;;;1.42;;
20653;SDS011;21083;50.898;4.902;2023-04-15T12:58:27;4.07;;;1.40;;
20653;SDS011;21083;50.898;4.902;2023-04-15T13:00:55;5.82;;;1.30;;
20653;SDS011;21083;50.898;4.902;2023-04-15T13:03:22;5.28;;;1.60;;
20653;SDS011;21083;50.898;4.902;2023-04-15T13:05:49;3.83;;;1.10;;
20653;SDS011;21083;50.898;4.902;2023-04-15T13:08:16;6.45;;;1.00;;
20653;SDS011;21083;50.898;4.902;2023-04-15T13:10:43;3.17;;;1.05;;
20653;SDS011;21083;50.898;4.902;2023-04-15T13:13:10;2.95;;;0.95;;
20653;SDS011;21083;50.898;4.902;2023-04-15T13:15:37;5.60;;;1.60;;
20653;SDS011;21083;50.898;4.902;2023-04-15T13:18:05;4.38;;;1.25;;
20653;SDS011;21083;50.898;4.902;2023-04-15T13:20:32;4.25;;;1.50;;
20653;SDS011;21083;50.898;4.902;2023-04-15T13:22:59;6.05;;;1.50;;
20653;SDS011;21083;50.898;4.902;2023-04-15T13:25:26;2.53;;;0.77;;
20653;SDS011;21083;50.898;4.902;2023-04-15T13:27:52;3.72;;;0.93;;
20653;SDS011;21083;50.898;4.902;2023-04-15T13:30:19;5.10;;;1.20;;
20653;SDS011;21083;50.898;4.902;2023-04-15T13:32:46;3.00;;;0.80;;
20653;SDS011;21083;50.898;4.902;2023-04-15T13:35:14;3.65;;;1.25;;
20653;SDS011;21083;50.898;4.902;2023-04-15T13:37:41;4.22;;;1.20;;
20653;SDS011;21083;50.898;4.902;2023-04-15T13:40:08;6.03;;;1.60;;
20653;SDS011;21083;50.898;4.902;2023-04-15T13:42:36;4.75;;;1.40;;
20653;SDS011;21083;50.898;4.902;2023-04-15T13:45:03;3.70;;;1.33;;
20653;SDS011;21083;50.898;4.902;2023-04-15T13:47:31;4.22;;;1.20;;
20653;SDS011;21083;50.898;4.902;2023-04-15T13:49:58;6.35;;;1.73;;
20653;SDS011;21083;50.898;4.902;2023-04-15T13:52:26;4.80;;;1.60;;
20653;SDS011;21083;50.898;4.902;2023-04-15T13:54:53;7.05;;;1.92;;
20653;SDS011;21083;50.898;4.902;2023-04-15T13:57:19;5.85;;;1.52;;
20653;SDS011;21083;50.898;4.902;2023-04-15T13:59:46;3.50;;;1.35;;
20653;SDS011;21083;50.898;4.902;2023-04-15T14:02:13;8.68;;;1.50;;
20653;SDS011;21083;50.898;4.902;2023-04-15T14:04:40;6.50;;;1.50;;
20653;SDS011;21083;50.898;4.902;2023-04-15T14:07:07;6.20;;;1.60;;
20653;SDS011;21083;50.898;4.902;2023-04-15T14:09:35;6.07;;;1.48;;
20653;SDS011;21083;50.898;4.902;2023-04-15T14:12:02;6.00;;;1.40;;
20653;SDS011;21083;50.898;4.902;2023-04-15T14:14:29;5.05;;;1.67;;
20653;SDS011;21083;50.898;4.902;2023-04-15T14:16:56;8.10;;;1.90;;
20653;SDS011;21083;50.898;4.902;2023-04-15T14:19:23;4.65;;;1.33;;
20653;SDS011;21083;50.898;4.902;2023-04-15T14:21:50;3.45;;;1.60;;
20653;SDS011;21083;50.898;4.902;2023-04-15T14:24:17;8.65;;;1.95;;
20653;SDS011;21083;50.898;4.902;2023-04-15T14:26:45;8.18;;;1.80;;
20653;SDS011;21083;50.898;4.902;2023-04-15T14:29:12;8.55;;;1.98;;
20653;SDS011;21083;50.898;4.902;2023-04-15T14:31:39;6.80;;;2.35;;
20653;SDS011;21083;50.898;4.902;2023-04-15T14:34:07;7.10;;;2.38;;
20653;SDS011;21083;50.898;4.902;2023-04-15T14:36:34;7.57;;;2.58;;
20653;SDS011;21083;50.898;4.902;2023-04-15T14:39:01;6.88;;;2.15;;
20653;SDS011;21083;50.898;4.902;2023-04-15T14:41:29;5.60;;;1.80;;
20653;SDS011;21083;50.898;4.902;2023-04-15T14:43:57;5.38;;;1.90;;
20653;SDS011;21083;50.898;4.902;2023-04-15T14:46:25;3.22;;;1.30;;
20653;SDS011;21083;50.898;4.902;2023-04-15T14:48:52;6.07;;;1.23;;
20653;SDS011;21083;50.898;4.902;2023-04-15T14:51:19;5.78;;;1.48;;
20653;SDS011;21083;50.898;4.902;2023-04-15T14:53:46;5.55;;;1.83;;
20653;SDS011;21083;50.898;4.902;2023-04-15T14:56:12;4.63;;;2.03;;
20653;SDS011;21083;50.898;4.902;2023-04-15T14:58:39;5.90;;;1.83;;